Nearby METAR Reports

 

KW29 - Stevensville, Maryland, USA
Distance from station: SSW 13mi, 21km
Updated: Tue, 16-Jan-2018 1:55pm EST
Mist, Partly cloudy
Mist, Partly cloudy
 Wind from WSW
Wind: WSW 5 mph , 7 km/h
Temperature: 32°F , 0°C
Wind Chill: 27°F , -3°C
Dew Point: 28°F , -2°C
Humidity: 87%
Barometer: 30.40 inHg , 1029.5 hPa
Summary: Mist
Clouds: Partly cloudy
Visibility: 4 miles , 6 km
Cloud details: Partly cloudy 300 ft
2018/01/16 18:55 KW29 161855Z AUTO 25004KT 4SM BR SCT003 00/M02 A3040 RMK AO2
KMTN - Baltimore/Martin, Maryland, USA
Distance from station: NW 13mi, 22km
Updated: Tue, 16-Jan-2018 1:50pm EST
Overcast
Overcast
 Wind from calm
Wind: Calm
Temperature: 37°F , 3°C
Dew Point: 34°F , 1°C
Humidity: 87%
Barometer: 30.41 inHg , 1029.8 hPa
Clouds: Overcast
Visibility: 10 miles , 16 km
Cloud details: Overcast 1700 ft
2018/01/16 18:50 KMTN 161850Z 00000KT 10SM OVC017 03/01 A3041
 
KNAK - Annapolis/Naval, Maryland, USA
Distance from station: SW 18mi, 28km
Updated: Tue, 16-Jan-2018 1:54pm EST
Mist, Partly cloudy
Mist, Partly cloudy
 Wind from ESE
Wind: ESE 3 mph , 6 km/h
Temperature: 34°F , 1°C
Dew Point: 32°F , 0°C
Humidity: 93%
Barometer: 30.40 inHg , 1029.5 hPa
Summary: Mist
Clouds: Partly cloudy
Visibility: 6 miles , 10 km
Cloud details: Partly cloudy 1500 ft
2018/01/16 18:54 KNAK 161854Z AUTO 11003KT 6SM BR SCT015 01/00 A3040 RMK AO2 SLP294 T00110000
KAPG - Aberdeen/Phillip, Maryland, USA
Distance from station: NNE 21mi, 34km
Updated: Tue, 16-Jan-2018 1:58pm EST
Mostly cloudy
Mostly cloudy
 Wind from calm
Wind: Calm
Temperature: 39°F , 4°C
Dew Point: 32°F , 0°C
Humidity: 75%
Barometer: 30.40 inHg , 1029.5 hPa
Clouds: Mostly cloudy
Visibility: 7 miles , 11 km
Cloud details: Mostly cloudy 15000 ft
2018/01/16 18:58 KAPG 161858Z 00000KT 7SM BKN150 04/00 A3040 RMK AO2A SLPNO $
 
KDMH - Baltimore/Dwntwn, Maryland, USA
Distance from station: WNW 21mi, 34km
Updated: Tue, 16-Jan-2018 1:54pm EST

 
Temperature: 37°F , 3°C
Dew Point: 30°F , -1°C
Humidity: 75%
Barometer: 30.40 inHg , 1029.5 hPa
2018/01/16 18:54 KDMH 161854Z AUTO 03/M01 A3040 RMK AO1 SLP294 T00281011
KBWI - Balto/Wash Intl, Maryland, USA
Distance from station: W 23mi, 37km
Updated: Tue, 16-Jan-2018 1:54pm EST
Mostly cloudy
Mostly cloudy
 Wind from calm
Wind: Calm
Temperature: 39°F , 4°C
Dew Point: 27°F , -3°C
Humidity: 61%
Barometer: 30.38 inHg , 1028.8 hPa
Clouds: Mostly cloudy
Visibility: 10 miles , 16 km
Cloud details: Few Clouds 1100 ft
Few Clouds 9000 ft
Mostly cloudy 16000 ft
Mostly cloudy 26000 ft
2018/01/16 18:54 KBWI 161854Z 00000KT 10SM FEW011 FEW090 BKN160 BKN260 04/M03 A3038 RMK AO2 SLP290 T00391033
 
KESN - Easton/Newnam, Maryland, USA
Distance from station: SSE 27mi, 44km
Updated: Tue, 16-Jan-2018 1:50pm EST
Clear
Clear
 Wind from calm
Wind: Calm
Temperature: 45°F , 7°C
Dew Point: 32°F , 0°C
Humidity: 61%
Barometer: 30.42 inHg , 1030.1 hPa
Clouds: Clear
Visibility: 10 miles , 16 km
2018/01/16 18:50 KESN 161850Z 00000KT 10SM SKC 07/00 A3042
KFME - Fort Meade, Maryland, USA
Distance from station: WSW 28mi, 45km
Updated: Tue, 16-Jan-2018 1:57pm EST
Clear
Clear
 Wind from S
Wind: S 3 mph , 6 km/h
Temperature: 37°F , 3°C
Dew Point: 27°F , -3°C
Humidity: 65%
Barometer: 30.41 inHg , 1029.8 hPa
Clouds: Clear
Visibility: 10 miles , 16 km
2018/01/16 18:57 KFME 161857Z AUTO 18003KT 10SM CLR 03/M03 A3041 RMK AO1
 
KCGS - College Park, Maryland, USA
Distance from station: WSW 38mi, 61km
Updated: Tue, 16-Jan-2018 1:57pm EST
Clear
Clear
 Wind from calm
Wind: Calm
Temperature: 39°F , 4°C
Dew Point: 23°F , -5°C
Humidity: 52%
Barometer: 30.38 inHg , 1028.8 hPa
Clouds: Clear
Visibility: 10 miles , 16 km
2018/01/16 18:57 KCGS 161857Z AUTO 00000KT 10SM CLR 04/M05 A3038 RMK AO1 T00371055
KADW - Andrews Afb, Maryland, USA
Distance from station: SW 41mi, 66km
Updated: Tue, 16-Jan-2018 1:56pm EST
Clear
Clear
 Wind from SSE
Wind: SSE 5 mph , 7 km/h
Temperature: 41°F , 5°C
Wind Chill: 38°F , 3°C
Dew Point: 23°F , -5°C
Humidity: 49%
Barometer: 30.37 inHg , 1028.4 hPa
Clouds: Clear
Visibility: 10 miles , 16 km
2018/01/16 18:56 KADW 161856Z AUTO 15004KT 10SM CLR 05/M05 A3037 RMK AO2 SLP294 T00541053 $
 
KDOV - Dover Afb, Delaware, USA
Distance from station: E 42mi, 68km
Updated: Tue, 16-Jan-2018 1:56pm EST
Partly cloudy
Partly cloudy
 Wind from ESE
Wind: ESE 10 mph , 17 km/h
Temperature: 45°F , 7°C
Wind Chill: 40°F , 4°C
Dew Point: 39°F , 4°C
Humidity: 81%
Barometer: 30.39 inHg , 1029.1 hPa
Clouds: Partly cloudy
Visibility: 10 miles , 16 km
Cloud details: Few Clouds 5000 ft
Partly cloudy 20000 ft
2018/01/16 18:56 KDOV 161856Z 12009KT 10SM FEW050 SCT200 07/04 A3039 RMK AO2A SLP294 T00670042 $
KCGE - Cambridge-Dorch, Maryland, USA
Distance from station: SSE 45mi, 73km
Updated: Tue, 16-Jan-2018 1:55pm EST
Clear
Clear
 Wind from varies
Wind: varies 3 mph , 6 km/h
Temperature: 45°F , 7°C
Dew Point: 32°F , 0°C
Humidity: 61%
Barometer: 30.39 inHg , 1029.1 hPa
Clouds: Clear
Visibility: 10 miles , 16 km
2018/01/16 18:55 KCGE 161855Z AUTO VRB03KT 10SM CLR 07/00 A3039 RMK A01
 
KDCA - Washington/Natl, Washington D.c., USA
Distance from station: WSW 47mi, 76km
Updated: Tue, 16-Jan-2018 1:52pm EST
Overcast
Overcast
 Wind from SSE
Wind: SSE 5 mph , 7 km/h
Temperature: 37°F , 3°C
Wind Chill: 33°F , 1°C
Dew Point: 25°F , -4°C
Humidity: 60%
Barometer: 30.40 inHg , 1029.5 hPa
Clouds: Overcast
Visibility: 10 miles , 16 km
Cloud details: Few Clouds 14000 ft
Overcast 25000 ft
2018/01/16 18:52 KDCA 161852Z 16004KT 10SM FEW140 OVC250 03/M04 A3040 RMK AO2 SLP292 T00331039
KGAI - Gaithersburg, Maryland, USA
Distance from station: W 49mi, 78km
Updated: Tue, 16-Jan-2018 1:56pm EST
Clear
Clear
 Wind from SW
Wind: SW 3 mph , 6 km/h
Temperature: 39°F , 4°C
Dew Point: 21°F , -6°C
Humidity: 48%
Barometer: 30.37 inHg , 1028.4 hPa
Clouds: Clear
Visibility: 10 miles , 16 km
2018/01/16 18:56 KGAI 161856Z AUTO 22003KT 10SM CLR 04/M06 A3037 RMK AO2 SLP316 T00391061
 
KILG - Wilmington, Delaware, USA
Distance from station: NE 49mi, 79km
Updated: Tue, 16-Jan-2018 1:51pm EST
Partly cloudy
Partly cloudy
 Wind from SSE
Wind: SSE 10 mph , 17 km/h
Temperature: 41°F , 5°C
Wind Chill: 35°F , 2°C
Dew Point: 30°F , -1°C
Humidity: 66%
Barometer: 30.40 inHg , 1029.5 hPa
Clouds: Partly cloudy
Visibility: 10 miles , 16 km
Cloud details: Partly cloudy 6500 ft
2018/01/16 18:51 KILG 161851Z 16009KT 10SM SCT065 05/M01 A3040 RMK AO2 RAB09E18 SLP295 P0000 T00501006
KDMW - Carroll Cnty, Maryland, USA
Distance from station: NW 50mi, 80km
Updated: Tue, 16-Jan-2018 1:55pm EST
Overcast
Overcast
 Wind from calm
Wind: Calm
Temperature: 36°F , 2°C
Dew Point: 27°F , -3°C
Humidity: 70%
Barometer: 30.35 inHg , 1027.8 hPa
Clouds: Overcast
Visibility: 10 miles , 16 km
Cloud details: Overcast 8500 ft
2018/01/16 18:55 KDMW 161855Z AUTO 00000KT 10SM OVC085 02/M03 A3035 RMK AO2